Time;durP1;ratioP1;P1;durP2;ratioP2;P2;SDS_P1;SDS_P2;PMS_P1;PMS_P2;Temp;Humidity;BMP_temperature;BMP_pressure;BME280_temperature;BME280_humidity;BME280_pressure;Samples;Min_cycle;Max_cycle;Signal;HPM_P1;HPM_P2
2022/04/03 00:01:38;;;;;;;;;;;;;;;;;;5036065;28;20400;-67
2022/04/03 00:04:04;;;;;;;;;;;;;;;;;;5036681;28;20014;-68
2022/04/03 00:06:30;;;;;;;;;;;;;;;;;;5036330;28;19916;-69
2022/04/03 00:08:56;;;;;;;;;;;;;;;;;;5036435;28;19921;-67
2022/04/03 00:11:22;;;;;;;;;;;;;;;;;;5036414;28;19923;-67
2022/04/03 00:13:49;;;;;;;;;;;;;;;;;;5049521;28;20277;-67
2022/04/03 00:16:14;;;;;;;;;;;;;;;;;;5077604;28;19908;-67
2022/04/03 00:18:39;;;;;;;;;;;;;;;;;;5056057;28;20313;-67
2022/04/03 00:21:04;;;;;;;;;;;;;;;;;;5068613;28;19913;-67
2022/04/03 00:23:30;;;;;;;;;;;;;;;;;;5056319;28;19909;-68
2022/04/03 00:25:55;;;;;;;;;;;;;;;;;;5056276;28;19920;-67
2022/04/03 00:28:20;;;;;;;;;;;;;;;;;;5050798;28;19913;-68
2022/04/03 00:30:46;;;;;;;;;;;;;;;;;;5049056;28;19919;-68
2022/04/03 00:33:11;;;;;;;;;;;;;;;;;;5037817;28;19924;-68
2022/04/03 00:35:36;;;;;;;;;;;;;;;;;;5051835;28;19909;-68
2022/04/03 00:38:02;;;;;;;;;;;;;;;;;;5043605;28;19950;-68
2022/04/03 00:40:27;;;;;;;;;;;;;;;;;;5055765;28;19908;-68
2022/04/03 00:42:52;;;;;;;;;;;;;;;;;;5055979;28;19909;-67
2022/04/03 00:45:18;;;;;;;;;;;;;;;;;;5056892;28;19948;-67
2022/04/03 00:47:43;;;;;;;;;;;;;;;;;;5055622;28;19909;-67
2022/04/03 00:50:08;;;;;;;;;;;;;;;;;;5055620;28;19955;-67
2022/04/03 00:52:33;;;;;;;;;;;;;;;;;;5055781;28;19912;-67
2022/04/03 00:54:59;;;;;;;;;;;;;;;;;;5055448;28;19909;-67
2022/04/03 00:57:24;;;;;;;;;;;;;;;;;;5054273;28;19905;-67
2022/04/03 00:59:49;;;;;;;;;;;;;;;;;;5070977;28;20303;-67
2022/04/03 01:02:15;;;;;;;;;;;;;;;;;;5055293;28;20375;-67
2022/04/03 01:04:40;;;;;;;;;;;;;;;;;;5054255;28;19905;-67
2022/04/03 01:07:05;;;;;;;;;;;;;;;;;;5055755;28;19935;-68
2022/04/03 01:09:30;;;;;;;;;;;;;;;;;;5056069;28;20011;-67
2022/04/03 01:11:56;;;;;;;;;;;;;;;;;;5055393;28;19991;-67
2022/04/03 01:14:21;;;;;;;;;;;;;;;;;;5054043;28;19905;-68
2022/04/03 01:16:47;;;;;;;;;;;;;;;;;;5055336;28;19959;-68
2022/04/03 01:19:12;;;;;;;;;;;;;;;;;;5053794;28;19913;-68
2022/04/03 01:21:37;;;;;;;;;;;;;;;;;;5054764;28;19978;-69
2022/04/03 01:24:02;;;;;;;;;;;;;;;;;;5055474;28;19909;-67
2022/04/03 01:26:28;;;;;;;;;;;;;;;;;;5070478;28;19913;-68
2022/04/03 01:28:53;;;;;;;;;;;;;;;;;;5054785;28;19931;-67
2022/04/03 01:31:19;;;;;;;;;;;;;;;;;;5055067;28;20380;-68
2022/04/03 01:33:44;;;;;;;;;;;;;;;;;;5043630;28;19929;-68
2022/04/03 01:36:10;;;;;;;;;;;;;;;;;;5050111;28;20047;-68
2022/04/03 01:38:35;;;;;;;;;;;;;;;;;;5035270;28;19912;-68
2022/04/03 01:41:00;;;;;;;;;;;;;;;;;;5050345;28;20239;-66
2022/04/03 01:43:26;;;;;;;;;;;;;;;;;;5047171;28;20250;-68
2022/04/03 01:45:51;;;;;;;;;;;;;;;;;;5053399;28;19904;-68
2022/04/03 01:48:18;;;;;;;;;;;;;;;;;;5054576;28;19913;-66
2022/04/03 01:50:43;;;;;;;;;;;;;;;;;;5067927;28;19999;-67
2022/04/03 01:53:08;;;;;;;;;;;;;;;;;;5054298;28;20392;-67
2022/04/03 01:55:33;;;;;;;;;;;;;;;;;;5054365;28;20418;-66
2022/04/03 01:57:59;;;;;;;;;;;;;;;;;;5054265;28;20265;-67
2022/04/03 02:00:24;;;;;;;;;;;;;;;;;;5054662;28;19962;-67
2022/04/03 02:02:50;;;;;;;;;;;;;;;;;;5070039;28;19909;-67
2022/04/03 02:05:15;;;;;;;;;;;;;;;;;;5069477;28;19971;-67
2022/04/03 02:07:41;;;;;;;;;;;;;;;;;;5054526;28;19996;-67
2022/04/03 02:10:09;;;;;;;;;;;;;;;;;;5054903;28;19913;-67
2022/04/03 02:12:34;;;;;;;;;;;;;;;;;;5054070;28;19909;-67
2022/04/03 02:14:59;;;;;;;;;;;;;;;;;;5053020;28;20261;-68
2022/04/03 02:17:25;;;;;;;;;;;;;;;;;;5054273;28;20003;-67
2022/04/03 02:19:50;;;;;;;;;;;;;;;;;;5054200;28;20047;-67
2022/04/03 02:22:15;;;;;;;;;;;;;;;;;;5054494;28;19995;-67
2022/04/03 02:24:40;;;;;;;;;;;;;;;;;;5054105;28;19909;-67
2022/04/03 02:27:06;;;;;;;;;;;;;;;;;;5069274;28;19986;-67
2022/04/03 02:29:31;;;;;;;;;;;;;;;;;;5042074;28;19917;-67
2022/04/03 02:31:58;;;;;;;;;;;;;;;;;;5054043;28;20272;-67
2022/04/03 02:34:24;;;;;;;;;;;;;;;;;;5054092;28;20258;-67
2022/04/03 02:36:49;;;;;;;;;;;;;;;;;;5069825;28;20417;-67
2022/04/03 02:39:14;;;;;;;;;;;;;;;;;;5069783;28;19908;-67
2022/04/03 02:41:40;;;;;;;;;;;;;;;;;;5053590;28;19909;-67
2022/04/03 02:44:05;;;;;;;;;;;;;;;;;;5053753;28;20261;-66
2022/04/03 02:46:30;;;;;;;;;;;;;;;;;;5055711;28;19913;-67
2022/04/03 02:48:55;;;;;;;;;;;;;;;;;;5055139;28;19924;-67
2022/04/03 02:51:21;;;;;;;;;;;;;;;;;;5053055;28;19952;-66
2022/04/03 02:53:46;;;;;;;;;;;;;;;;;;5053530;28;20307;-66
2022/04/03 02:56:11;;;;;;;;;;;;;;;;;;5054073;28;20007;-67
2022/04/03 02:58:37;;;;;;;;;;;;;;;;;;5058057;28;19905;-66
2022/04/03 03:01:02;;;;;;;;;;;;;;;;;;5055280;28;19917;-67
2022/04/03 03:03:27;;;;;;;;;;;;;;;;;;5057808;28;19909;-66
2022/04/03 03:05:53;;;;;;;;;;;;;;;;;;5055219;28;20046;-66
2022/04/03 03:08:18;;;;;;;;;;;;;;;;;;5057709;28;19958;-66
2022/04/03 03:10:43;;;;;;;;;;;;;;;;;;5057388;28;19916;-67
2022/04/03 03:13:08;;;;;;;;;;;;;;;;;;5053871;28;19916;-66
2022/04/03 03:15:34;;;;;;;;;;;;;;;;;;5072804;28;19908;-67
2022/04/03 03:17:59;;;;;;;;;;;;;;;;;;5057176;28;19962;-66
2022/04/03 03:20:24;;;;;;;;;;;;;;;;;;5057995;28;19982;-67
2022/04/03 03:22:49;;;;;;;;;;;;;;;;;;5073012;28;20353;-67
2022/04/03 03:25:14;;;;;;;;;;;;;;;;;;5056157;28;19954;-67
2022/04/03 03:27:40;;;;;;;;;;;;;;;;;;5042017;28;19917;-66
2022/04/03 03:30:05;;;;;;;;;;;;;;;;;;5037064;28;19924;-66
2022/04/03 03:32:30;;;;;;;;;;;;;;;;;;5070155;28;20338;-67
2022/04/03 03:34:55;;;;;;;;;;;;;;;;;;5034409;28;20380;-67
2022/04/03 03:37:21;;;;;;;;;;;;;;;;;;5037348;28;19941;-67
2022/04/03 03:39:46;;;;;;;;;;;;;;;;;;5037208;28;19984;-67
2022/04/03 03:42:12;;;;;;;;;;;;;;;;;;5037469;28;19913;-67
2022/04/03 03:44:37;;;;;;;;;;;;;;;;;;5037425;28;19971;-67
2022/04/03 03:47:02;;;;;;;;;;;;;;;;;;5052336;28;19909;-66
2022/04/03 03:49:28;;;;;;;;;;;;;;;;;;5034620;28;20365;-66
2022/04/03 03:51:53;;;;;;;;;;;;;;;;;;5037257;28;19963;-66
2022/04/03 03:54:19;;;;;;;;;;;;;;;;;;5052398;28;19949;-67
2022/04/03 03:56:44;;;;;;;;;;;;;;;;;;5036650;28;19909;-68
2022/04/03 03:59:09;;;;;;;;;;;;;;;;;;5036953;28;19916;-66
2022/04/03 04:01:34;;;;;;;;;;;;;;;;;;5056794;28;19912;-66
2022/04/03 04:04:00;;;;;;;;;;;;;;;;;;5056745;28;19923;-66
2022/04/03 04:06:25;;;;;;;;;;;;;;;;;;5067978;28;19920;-66
2022/04/03 04:08:50;;;;;;;;;;;;;;;;;;5035343;28;19959;-66
2022/04/03 04:11:16;;;;;;;;;;;;;;;;;;5066725;28;20027;-66
2022/04/03 04:13:41;;;;;;;;;;;;;;;;;;5036374;28;19916;-66
2022/04/03 04:16:06;;;;;;;;;;;;;;;;;;5052202;28;19915;-66
2022/04/03 04:18:31;;;;;;;;;;;;;;;;;;5044801;28;19955;-66
2022/04/03 04:20:57;;;;;;;;;;;;;;;;;;5056519;28;19912;-66
2022/04/03 04:23:22;;;;;;;;;;;;;;;;;;5038351;28;19905;-66
2022/04/03 04:25:47;;;;;;;;;;;;;;;;;;5036039;28;19909;-66
2022/04/03 04:28:12;;;;;;;;;;;;;;;;;;5035985;28;19966;-66
2022/04/03 04:30:38;;;;;;;;;;;;;;;;;;5036073;28;19913;-66
2022/04/03 04:33:03;;;;;;;;;;;;;;;;;;5036233;28;19971;-66
2022/04/03 04:35:28;;;;;;;;;;;;;;;;;;5036416;28;20011;-66
2022/04/03 04:37:53;;;;;;;;;;;;;;;;;;5036586;28;20309;-66
2022/04/03 04:40:18;;;;;;;;;;;;;;;;;;5036598;28;19967;-66
2022/04/03 04:42:44;;;;;;;;;;;;;;;;;;5051936;28;20299;-65
2022/04/03 04:45:09;;;;;;;;;;;;;;;;;;5051836;28;19909;-66
2022/04/03 04:47:35;;;;;;;;;;;;;;;;;;5037481;28;19910;-66
2022/04/03 04:50:00;;;;;;;;;;;;;;;;;;5037669;28;19913;-65
2022/04/03 04:52:25;;;;;;;;;;;;;;;;;;5036853;28;20297;-66
2022/04/03 04:54:50;;;;;;;;;;;;;;;;;;5034722;28;19979;-67
2022/04/03 04:57:15;;;;;;;;;;;;;;;;;;5056437;28;19912;-66
2022/04/03 04:59:42;;;;;;;;;;;;;;;;;;5056740;28;19932;-66
2022/04/03 05:02:07;;;;;;;;;;;;;;;;;;5071813;28;19909;-66
2022/04/03 05:04:32;;;;;;;;;;;;;;;;;;5072965;28;20261;-67
2022/04/03 05:06:57;;;;;;;;;;;;;;;;;;5056028;28;19912;-67
2022/04/03 05:09:22;;;;;;;;;;;;;;;;;;5071296;28;20006;-66
2022/04/03 05:11:48;;;;;;;;;;;;;;;;;;5055331;28;19909;-66
2022/04/03 05:14:13;;;;;;;;;;;;;;;;;;5070882;28;20022;-66
2022/04/03 05:16:38;;;;;;;;;;;;;;;;;;5071026;28;20405;-66
2022/04/03 05:19:04;;;;;;;;;;;;;;;;;;5054883;28;19913;-66
2022/04/03 05:21:29;;;;;;;;;;;;;;;;;;5070945;28;20265;-67
2022/04/03 05:23:54;;;;;;;;;;;;;;;;;;5070712;28;19979;-66
2022/04/03 05:26:19;;;;;;;;;;;;;;;;;;5070692;28;19988;-66
2022/04/03 05:28:44;;;;;;;;;;;;;;;;;;5070426;28;19913;-66
2022/04/03 05:31:10;;;;;;;;;;;;;;;;;;5054905;28;19962;-67
2022/04/03 05:33:36;;;;;;;;;;;;;;;;;;5055763;28;20141;-67
2022/04/03 05:36:01;;;;;;;;;;;;;;;;;;5034103;28;19909;-67
2022/04/03 05:38:26;;;;;;;;;;;;;;;;;;5048872;28;19909;-66
2022/04/03 05:40:52;;;;;;;;;;;;;;;;;;5050492;28;19909;-66
2022/04/03 05:43:17;;;;;;;;;;;;;;;;;;5041497;28;19916;-66
2022/04/03 05:45:42;;;;;;;;;;;;;;;;;;5038671;28;19909;-66
2022/04/03 05:48:07;;;;;;;;;;;;;;;;;;5032284;28;19920;-66
2022/04/03 05:50:33;;;;;;;;;;;;;;;;;;5033655;28;19913;-66
2022/04/03 05:52:58;;;;;;;;;;;;;;;;;;5034560;28;19909;-66
2022/04/03 05:55:23;;;;;;;;;;;;;;;;;;5035436;28;20242;-66
2022/04/03 05:57:48;;;;;;;;;;;;;;;;;;5034453;28;19963;-67
2022/04/03 06:00:14;;;;;;;;;;;;;;;;;;5033954;28;19913;-66
2022/04/03 06:02:39;;;;;;;;;;;;;;;;;;5070097;28;19978;-66
2022/04/03 06:05:04;;;;;;;;;;;;;;;;;;5051465;28;20261;-66
2022/04/03 06:07:29;;;;;;;;;;;;;;;;;;5034270;28;19913;-66
2022/04/03 06:09:55;;;;;;;;;;;;;;;;;;5034568;28;19962;-66
2022/04/03 06:12:20;;;;;;;;;;;;;;;;;;5034477;28;19909;-66
2022/04/03 06:14:45;;;;;;;;;;;;;;;;;;5034247;28;20047;-66
2022/04/03 06:17:10;;;;;;;;;;;;;;;;;;5044407;28;20320;-66
2022/04/03 06:19:35;;;;;;;;;;;;;;;;;;5069835;28;19917;-65
2022/04/03 06:22:01;;;;;;;;;;;;;;;;;;5054031;28;19909;-67
2022/04/03 06:24:26;;;;;;;;;;;;;;;;;;5054569;28;19912;-67
2022/04/03 06:26:51;;;;;;;;;;;;;;;;;;5052888;28;19913;-66
2022/04/03 06:29:16;;;;;;;;;;;;;;;;;;5054390;28;19913;-67
2022/04/03 06:31:41;;;;;;;;;;;;;;;;;;5053371;28;19954;-66
2022/04/03 06:34:07;;;;;;;;;;;;;;;;;;5032994;28;19910;-67
2022/04/03 06:36:32;;;;;;;;;;;;;;;;;;5033591;28;19905;-66
2022/04/03 06:38:57;;;;;;;;;;;;;;;;;;5054057;28;19962;-67
2022/04/03 06:41:23;;;;;;;;;;;;;;;;;;5050298;28;19951;-66
2022/04/03 06:43:48;;;;;;;;;;;;;;;;;;5032748;28;20261;-65
2022/04/03 06:46:13;;;;;;;;;;;;;;;;;;5034604;28;20043;-66
2022/04/03 06:48:38;;;;;;;;;;;;;;;;;;5031897;28;20066;-66
2022/04/03 06:51:03;;;;;;;;;;;;;;;;;;5033948;28;19963;-66
2022/04/03 06:53:29;;;;;;;;;;;;;;;;;;5063860;28;19911;-65
2022/04/03 06:55:54;;;;;;;;;;;;;;;;;;5049272;28;19956;-65
2022/04/03 06:58:19;;;;;;;;;;;;;;;;;;5048994;28;19964;-65
2022/04/03 07:00:45;;;;;;;;;;;;;;;;;;5034153;28;19909;-65
2022/04/03 07:03:10;;;;;;;;;;;;;;;;;;5033787;28;19963;-67
2022/04/03 07:05:35;;;;;;;;;;;;;;;;;;5034046;28;19909;-66
2022/04/03 07:08:00;;;;;;;;;;;;;;;;;;5033691;28;19913;-66
2022/04/03 07:10:25;;;;;;;;;;;;;;;;;;5042452;28;19920;-66
2022/04/03 07:12:50;;;;;;;;;;;;;;;;;;5053650;28;19909;-66
2022/04/03 07:15:16;;;;;;;;;;;;;;;;;;5049848;28;19999;-67
2022/04/03 07:17:41;;;;;;;;;;;;;;;;;;5053672;28;20342;-67
2022/04/03 07:20:06;;;;;;;;;;;;;;;;;;5053749;28;19951;-67
2022/04/03 07:22:31;;;;;;;;;;;;;;;;;;5054143;28;19995;-66
2022/04/03 07:24:57;;;;;;;;;;;;;;;;;;5053252;28;19909;-67
2022/04/03 07:27:22;;;;;;;;;;;;;;;;;;5053139;28;19915;-67
2022/04/03 07:29:47;;;;;;;;;;;;;;;;;;5053489;28;20324;-67
2022/04/03 07:32:12;;;;;;;;;;;;;;;;;;5053506;28;19915;-67
2022/04/03 07:34:38;;;;;;;;;;;;;;;;;;5053204;28;19909;-67
2022/04/03 07:37:03;;;;;;;;;;;;;;;;;;5036170;28;20000;-67
2022/04/03 07:39:28;;;;;;;;;;;;;;;;;;5033466;28;19916;-67
2022/04/03 07:41:53;;;;;;;;;;;;;;;;;;5030944;28;19909;-68
2022/04/03 07:44:19;;;;;;;;;;;;;;;;;;5052703;28;20349;-68
2022/04/03 07:46:44;;;;;;;;;;;;;;;;;;5052267;28;19920;-68
2022/04/03 07:49:10;;;;;;;;;;;;;;;;;;5052984;28;19913;-68
2022/04/03 07:51:36;;;;;;;;;;;;;;;;;;5052806;28;20004;-68
2022/04/03 07:54:01;;;;;;;;;;;;;;;;;;5037059;28;20396;-68
2022/04/03 07:56:26;;;;;;;;;;;;;;;;;;5036988;28;19909;-68
2022/04/03 07:58:52;;;;;;;;;;;;;;;;;;5038993;28;19916;-68
2022/04/03 08:01:17;;;;;;;;;;;;;;;;;;5071873;28;19909;-66
2022/04/03 08:03:42;;;;;;;;;;;;;;;;;;5067773;28;19940;-67
2022/04/03 08:06:07;;;;;;;;;;;;;;;;;;5049922;28;19976;-67
2022/04/03 08:08:33;;;;;;;;;;;;;;;;;;5049742;28;19912;-68
2022/04/03 08:10:58;;;;;;;;;;;;;;;;;;5056612;28;19908;-67
2022/04/03 08:13:23;;;;;;;;;;;;;;;;;;5056192;28;19958;-68
2022/04/03 08:15:48;;;;;;;;;;;;;;;;;;5071674;28;19909;-67
2022/04/03 08:18:14;;;;;;;;;;;;;;;;;;5054071;28;19909;-67
2022/04/03 08:20:39;;;;;;;;;;;;;;;;;;5056756;28;20008;-68
2022/04/03 08:23:05;;;;;;;;;;;;;;;;;;5056528;28;19952;-68
2022/04/03 08:25:31;;;;;;;;;;;;;;;;;;5056070;28;19912;-69
2022/04/03 08:27:56;;;;;;;;;;;;;;;;;;5071460;28;20438;-68
2022/04/03 08:30:21;;;;;;;;;;;;;;;;;;5071654;28;19908;-68
2022/04/03 08:32:47;;;;;;;;;;;;;;;;;;5056017;28;19916;-68
2022/04/03 08:35:12;;;;;;;;;;;;;;;;;;5048203;28;20354;-68
2022/04/03 08:37:37;;;;;;;;;;;;;;;;;;5035855;28;19916;-69
2022/04/03 08:40:03;;;;;;;;;;;;;;;;;;5036363;28;20004;-69
2022/04/03 08:42:28;;;;;;;;;;;;;;;;;;5035859;28;20004;-68
2022/04/03 08:44:54;;;;;;;;;;;;;;;;;;5036718;28;19975;-68
2022/04/03 08:47:19;;;;;;;;;;;;;;;;;;5051873;28;19909;-68
2022/04/03 08:49:44;;;;;;;;;;;;;;;;;;5033611;28;20303;-68
2022/04/03 08:52:09;;;;;;;;;;;;;;;;;;5033653;28;20322;-68
2022/04/03 08:54:35;;;;;;;;;;;;;;;;;;5035100;28;19909;-69
2022/04/03 08:57:00;;;;;;;;;;;;;;;;;;5034791;28;19905;-68
2022/04/03 08:59:27;;;;;;;;;;;;;;;;;;5035638;28;20008;-68
2022/04/03 09:01:52;;;;;;;;;;;;;;;;;;5033233;28;19909;-68
2022/04/03 09:04:20;;;;;;;;;;;;;;;;;;5035464;28;20003;-67
2022/04/03 09:06:46;;;;;;;;;;;;;;;;;;5035487;28;19959;-66
2022/04/03 09:09:11;;;;;;;;;;;;;;;;;;5032839;28;19959;-67
2022/04/03 09:11:36;;;;;;;;;;;;;;;;;;5035489;28;19913;-67
2022/04/03 09:14:01;;;;;;;;;;;;;;;;;;5051418;28;19925;-68
2022/04/03 09:16:27;;;;;;;;;;;;;;;;;;5050767;28;20354;-67
2022/04/03 09:18:52;;;;;;;;;;;;;;;;;;5035213;28;19913;-67
2022/04/03 09:21:17;;;;;;;;;;;;;;;;;;5035040;28;20354;-67
2022/04/03 09:23:42;;;;;;;;;;;;;;;;;;5045057;28;19915;-67
2022/04/03 09:26:07;;;;;;;;;;;;;;;;;;5055412;28;19954;-67
2022/04/03 09:28:33;;;;;;;;;;;;;;;;;;5071258;28;19908;-67
2022/04/03 09:30:59;;;;;;;;;;;;;;;;;;5054792;28;19959;-67
2022/04/03 09:33:24;;;;;;;;;;;;;;;;;;5055032;28;19916;-67
2022/04/03 09:35:50;;;;;;;;;;;;;;;;;;5054649;28;19908;-67
2022/04/03 09:38:15;;;;;;;;;;;;;;;;;;5070382;28;19911;-67
2022/04/03 09:40:40;;;;;;;;;;;;;;;;;;5054557;28;19932;-67
2022/04/03 09:43:05;;;;;;;;;;;;;;;;;;5054814;28;19905;-67
2022/04/03 09:45:31;;;;;;;;;;;;;;;;;;5055095;28;19908;-67
2022/04/03 09:47:56;;;;;;;;;;;;;;;;;;5070066;28;20015;-67
2022/04/03 09:50:21;;;;;;;;;;;;;;;;;;5067607;28;19917;-66
2022/04/03 09:52:48;;;;;;;;;;;;;;;;;;5054747;28;20047;-67
2022/04/03 09:55:14;;;;;;;;;;;;;;;;;;5054721;28;19908;-68
2022/04/03 09:57:39;;;;;;;;;;;;;;;;;;5054342;28;19916;-67
2022/04/03 10:00:05;;;;;;;;;;;;;;;;;;5054907;28;19952;-67
2022/04/03 10:02:36;;;;;;;;;;;;;;;;;;5049608;28;19912;-67
2022/04/03 10:05:01;;;;;;;;;;;;;;;;;;5054878;28;19962;-67
2022/04/03 10:07:27;;;;;;;;;;;;;;;;;;5048242;28;19956;-67
2022/04/03 10:09:52;;;;;;;;;;;;;;;;;;5047575;28;19920;-68
2022/04/03 10:12:17;;;;;;;;;;;;;;;;;;5033358;28;19955;-66
2022/04/03 10:14:42;;;;;;;;;;;;;;;;;;5050406;28;19917;-67
2022/04/03 10:17:08;;;;;;;;;;;;;;;;;;5034176;28;19912;-67
2022/04/03 10:19:33;;;;;;;;;;;;;;;;;;5034268;28;19913;-66
2022/04/03 10:21:58;;;;;;;;;;;;;;;;;;5034295;28;19911;-67
2022/04/03 10:24:23;;;;;;;;;;;;;;;;;;5034264;28;19913;-67
2022/04/03 10:26:49;;;;;;;;;;;;;;;;;;5034189;28;20250;-67
2022/04/03 10:29:14;;;;;;;;;;;;;;;;;;5034548;28;19913;-67
2022/04/03 10:31:39;;;;;;;;;;;;;;;;;;5034193;28;20258;-67
2022/04/03 10:34:04;;;;;;;;;;;;;;;;;;5047061;28;19905;-67
2022/04/03 10:36:34;;;;;;;;;;;;;;;;;;5034170;28;19967;-68
2022/04/03 10:38:59;;;;;;;;;;;;;;;;;;5031530;28;19909;-67
2022/04/03 10:41:25;;;;;;;;;;;;;;;;;;5034107;28;19920;-67
2022/04/03 10:43:50;;;;;;;;;;;;;;;;;;5034008;28;19905;-67
2022/04/03 10:46:15;;;;;;;;;;;;;;;;;;5033953;28;19932;-67
2022/04/03 10:48:40;;;;;;;;;;;;;;;;;;5049420;28;19967;-68
2022/04/03 10:51:06;;;;;;;;;;;;;;;;;;5061530;28;19963;-67
2022/04/03 10:53:31;;;;;;;;;;;;;;;;;;5051213;28;19908;-67
2022/04/03 10:55:56;;;;;;;;;;;;;;;;;;5053794;28;19923;-67
2022/04/03 10:58:21;;;;;;;;;;;;;;;;;;5047742;28;19959;-66
2022/04/03 11:00:47;;;;;;;;;;;;;;;;;;5034859;28;19920;-66
2022/04/03 11:03:12;;;;;;;;;;;;;;;;;;5049233;28;19909;-68
2022/04/03 11:05:37;;;;;;;;;;;;;;;;;;5049617;28;19916;-67
2022/04/03 11:08:02;;;;;;;;;;;;;;;;;;5033678;28;19916;-68
2022/04/03 11:10:28;;;;;;;;;;;;;;;;;;5033567;28;19920;-67
2022/04/03 11:12:53;;;;;;;;;;;;;;;;;;5033738;28;19999;-68
2022/04/03 11:15:18;;;;;;;;;;;;;;;;;;5065775;28;19953;-67
2022/04/03 11:17:43;;;;;;;;;;;;;;;;;;5066832;28;20003;-67
2022/04/03 11:20:08;;;;;;;;;;;;;;;;;;5038101;28;20007;-67
2022/04/03 11:22:34;;;;;;;;;;;;;;;;;;5037405;28;20277;-68
2022/04/03 11:24:59;;;;;;;;;;;;;;;;;;5070981;28;19955;-67
2022/04/03 11:27:24;;;;;;;;;;;;;;;;;;5077100;28;19964;-67
2022/04/03 11:29:49;;;;;;;;;;;;;;;;;;5077148;28;19948;-67
2022/04/03 11:32:14;;;;;;;;;;;;;;;;;;5077159;28;19915;-67
2022/04/03 11:34:40;;;;;;;;;;;;;;;;;;5077071;28;19915;-68
2022/04/03 11:37:05;;;;;;;;;;;;;;;;;;5077555;28;19915;-67
2022/04/03 11:39:31;;;;;;;;;;;;;;;;;;5076375;28;20098;-66
2022/04/03 11:41:57;;;;;;;;;;;;;;;;;;5047151;28;19908;-66
2022/04/03 11:44:24;;;;;;;;;;;;;;;;;;5037296;28;19906;-67
2022/04/03 11:46:49;;;;;;;;;;;;;;;;;;5037207;28;20303;-68
2022/04/03 11:49:14;;;;;;;;;;;;;;;;;;5037275;28;19913;-67
2022/04/03 11:51:40;;;;;;;;;;;;;;;;;;5050101;28;19909;-68
2022/04/03 11:54:05;;;;;;;;;;;;;;;;;;5072506;28;19924;-67
2022/04/03 11:56:31;;;;;;;;;;;;;;;;;;5056944;28;20264;-68
2022/04/03 11:58:57;;;;;;;;;;;;;;;;;;5072266;28;19909;-68
2022/04/03 12:01:22;;;;;;;;;;;;;;;;;;5054001;28;19916;-68
2022/04/03 12:03:47;;;;;;;;;;;;;;;;;;5072132;28;19913;-69
2022/04/03 12:06:12;;;;;;;;;;;;;;;;;;5072022;28;19915;-68
2022/04/03 12:08:38;;;;;;;;;;;;;;;;;;5054619;28;19955;-68
2022/04/03 12:11:03;;;;;;;;;;;;;;;;;;5036481;28;20282;-68
2022/04/03 12:13:28;;;;;;;;;;;;;;;;;;5036485;28;19909;-68
2022/04/03 12:15:54;;;;;;;;;;;;;;;;;;5036974;28;19955;-68
2022/04/03 12:18:19;;;;;;;;;;;;;;;;;;5036513;28;19978;-68
2022/04/03 12:20:44;;;;;;;;;;;;;;;;;;5036313;28;19966;-67
2022/04/03 12:23:09;;;;;;;;;;;;;;;;;;5036859;28;20007;-68
2022/04/03 12:25:34;;;;;;;;;;;;;;;;;;5052211;28;19909;-68
2022/04/03 12:28:00;;;;;;;;;;;;;;;;;;5036931;28;20063;-68
2022/04/03 12:30:25;;;;;;;;;;;;;;;;;;5052339;28;19913;-67
2022/04/03 12:32:51;;;;;;;;;;;;;;;;;;5056557;28;19916;-67
2022/04/03 12:35:16;;;;;;;;;;;;;;;;;;5072188;28;19908;-67
2022/04/03 12:37:41;;;;;;;;;;;;;;;;;;5056184;28;19924;-67
2022/04/03 12:40:07;;;;;;;;;;;;;;;;;;5051913;28;20024;-68
2022/04/03 12:42:33;;;;;;;;;;;;;;;;;;5035932;28;19909;-68
2022/04/03 12:44:58;;;;;;;;;;;;;;;;;;5068435;28;19916;-68
2022/04/03 12:47:23;;;;;;;;;;;;;;;;;;5051739;28;19952;-67
2022/04/03 12:49:48;;;;;;;;;;;;;;;;;;5058464;28;20230;-67
2022/04/03 12:52:14;;;;;;;;;;;;;;;;;;5056014;28;19912;-67
2022/04/03 12:54:39;;;;;;;;;;;;;;;;;;5056189;28;19905;-67
2022/04/03 12:59:49;;;;;;;;;;;;;;;;;;5055835;28;19970;-67
2022/04/03 13:02:14;;;;;;;;;;;;;;;;;;5055434;28;20258;-68
2022/04/03 13:04:43;;;;;;;;;;;;;;;;;;5071157;28;19963;-66
2022/04/03 13:07:10;;;;;;;;;;;;;;;;;;5055583;28;19920;-68
2022/04/03 13:09:35;;;;;;;;;;;;;;;;;;5055564;28;20385;-67
2022/04/03 13:12:00;;;;;;;;;;;;;;;;;;5052855;28;19908;-67
2022/04/03 13:14:33;;;;;;;;;;;;;;;;;;5052923;28;19916;-66
2022/04/03 13:17:00;;;;;;;;;;;;;;;;;;5051194;28;19915;-67
2022/04/03 13:19:25;;;;;;;;;;;;;;;;;;5035450;28;19917;-67
2022/04/03 13:21:50;;;;;;;;;;;;;;;;;;5035454;28;19963;-67
2022/04/03 13:24:15;;;;;;;;;;;;;;;;;;5035108;28;20336;-68
2022/04/03 13:26:41;;;;;;;;;;;;;;;;;;5034982;28;19963;-68
2022/04/03 13:29:07;;;;;;;;;;;;;;;;;;5034908;28;19909;-67
2022/04/03 13:31:32;;;;;;;;;;;;;;;;;;5034998;28;19931;-68
2022/04/03 13:33:58;;;;;;;;;;;;;;;;;;5035151;28;20023;-67
2022/04/03 13:36:23;;;;;;;;;;;;;;;;;;5035067;28;20257;-66
2022/04/03 13:38:50;;;;;;;;;;;;;;;;;;5035421;28;20365;-66
2022/04/03 13:41:16;;;;;;;;;;;;;;;;;;5054698;28;20403;-65
2022/04/03 13:43:42;;;;;;;;;;;;;;;;;;5054961;28;19984;-66
2022/04/03 13:46:08;;;;;;;;;;;;;;;;;;5054870;28;19999;-66
2022/04/03 13:48:36;;;;;;;;;;;;;;;;;;5054977;28;19978;-66
2022/04/03 13:51:01;;;;;;;;;;;;;;;;;;5054482;28;19917;-67
2022/04/03 13:53:26;;;;;;;;;;;;;;;;;;5070365;28;19916;-65
2022/04/03 13:55:52;;;;;;;;;;;;;;;;;;5054809;28;19909;-66
2022/04/03 13:58:17;;;;;;;;;;;;;;;;;;5064104;28;20273;-66
2022/04/03 14:00:42;;;;;;;;;;;;;;;;;;5054643;28;19905;-66
2022/04/03 14:03:07;;;;;;;;;;;;;;;;;;5054260;28;19909;-66
2022/04/03 14:05:33;;;;;;;;;;;;;;;;;;5070083;28;19945;-66
2022/04/03 14:07:58;;;;;;;;;;;;;;;;;;5054288;28;19920;-67
2022/04/03 14:10:23;;;;;;;;;;;;;;;;;;5054239;28;19954;-67
2022/04/03 14:12:49;;;;;;;;;;;;;;;;;;5053710;28;19909;-67
2022/04/03 14:15:14;;;;;;;;;;;;;;;;;;5054774;28;19912;-67
2022/04/03 14:17:42;;;;;;;;;;;;;;;;;;5054052;28;19913;-67
2022/04/03 14:20:11;;;;;;;;;;;;;;;;;;5054841;28;19917;-67
2022/04/03 14:22:36;;;;;;;;;;;;;;;;;;5054203;28;19905;-65
2022/04/03 14:25:03;;;;;;;;;;;;;;;;;;5054225;28;19916;-66
2022/04/03 14:27:29;;;;;;;;;;;;;;;;;;5053087;28;19917;-67
2022/04/03 14:29:56;;;;;;;;;;;;;;;;;;5054506;28;19913;-66
2022/04/03 14:32:21;;;;;;;;;;;;;;;;;;5039614;28;19905;-67
2022/04/03 14:34:46;;;;;;;;;;;;;;;;;;5034244;28;19955;-67
2022/04/03 14:37:11;;;;;;;;;;;;;;;;;;5029500;28;19909;-66
2022/04/03 14:39:37;;;;;;;;;;;;;;;;;;5049469;28;19909;-67
2022/04/03 14:42:02;;;;;;;;;;;;;;;;;;5031519;28;19935;-67
2022/04/03 14:44:27;;;;;;;;;;;;;;;;;;5016611;28;19909;-67
2022/04/03 14:46:53;;;;;;;;;;;;;;;;;;5033704;28;19909;-67
2022/04/03 14:49:18;;;;;;;;;;;;;;;;;;5034866;28;19924;-67
2022/04/03 14:51:44;;;;;;;;;;;;;;;;;;5049136;28;20000;-68
2022/04/03 14:54:10;;;;;;;;;;;;;;;;;;5033357;28;19909;-68
2022/04/03 14:56:35;;;;;;;;;;;;;;;;;;5033895;28;19959;-68
2022/04/03 14:59:03;;;;;;;;;;;;;;;;;;5032388;28;19928;-67
2022/04/03 15:01:28;;;;;;;;;;;;;;;;;;5032767;28;19931;-68
2022/04/03 15:03:55;;;;;;;;;;;;;;;;;;5032747;28;19996;-68
2022/04/03 15:06:20;;;;;;;;;;;;;;;;;;5034218;28;20027;-68
2022/04/03 15:08:45;;;;;;;;;;;;;;;;;;5049121;28;19928;-69
2022/04/03 15:11:11;;;;;;;;;;;;;;;;;;5032365;28;19913;-68
2022/04/03 15:13:36;;;;;;;;;;;;;;;;;;5033809;28;19909;-68
2022/04/03 15:16:01;;;;;;;;;;;;;;;;;;5047111;28;19909;-68
2022/04/03 15:18:26;;;;;;;;;;;;;;;;;;5043560;28;19911;-68
2022/04/03 15:20:52;;;;;;;;;;;;;;;;;;5053686;28;19909;-68
2022/04/03 15:23:19;;;;;;;;;;;;;;;;;;5068816;28;19935;-68
2022/04/03 15:25:44;;;;;;;;;;;;;;;;;;5045640;28;19916;-68
2022/04/03 15:28:09;;;;;;;;;;;;;;;;;;5033579;28;19913;-68
2022/04/03 15:30:35;;;;;;;;;;;;;;;;;;5049001;28;19913;-68
2022/04/03 15:33:00;;;;;;;;;;;;;;;;;;5041161;28;19909;-67
2022/04/03 15:35:25;;;;;;;;;;;;;;;;;;5053396;28;19916;-67
2022/04/03 15:37:50;;;;;;;;;;;;;;;;;;5053490;28;19909;-68
2022/04/03 15:40:16;;;;;;;;;;;;;;;;;;5040578;28;20006;-67
2022/04/03 15:42:41;;;;;;;;;;;;;;;;;;5035108;28;19909;-68
2022/04/03 15:45:06;;;;;;;;;;;;;;;;;;5049722;28;19959;-68
2022/04/03 15:47:31;;;;;;;;;;;;;;;;;;5053210;28;19920;-68
2022/04/03 15:49:59;;;;;;;;;;;;;;;;;;5053009;28;20365;-68
2022/04/03 15:52:24;;;;;;;;;;;;;;;;;;5053015;28;19912;-68
2022/04/03 15:54:49;;;;;;;;;;;;;;;;;;5053394;28;19909;-68
2022/04/03 15:57:15;;;;;;;;;;;;;;;;;;5051941;28;19963;-68
2022/04/03 15:59:40;;;;;;;;;;;;;;;;;;5054968;28;19916;-68
2022/04/03 16:02:05;;;;;;;;;;;;;;;;;;5031233;28;19999;-68
2022/04/03 16:04:30;;;;;;;;;;;;;;;;;;5035521;28;20325;-66
2022/04/03 16:06:56;;;;;;;;;;;;;;;;;;5052288;28;19953;-68
2022/04/03 16:09:21;;;;;;;;;;;;;;;;;;5035414;28;19963;-68
2022/04/03 16:11:46;;;;;;;;;;;;;;;;;;5055509;28;19932;-67
2022/04/03 16:14:12;;;;;;;;;;;;;;;;;;5072179;28;20373;-67
2022/04/03 16:16:37;;;;;;;;;;;;;;;;;;5071960;28;19962;-66
2022/04/03 16:19:04;;;;;;;;;;;;;;;;;;5056526;28;19964;-66
2022/04/03 16:21:30;;;;;;;;;;;;;;;;;;5058542;28;20004;-67
2022/04/03 16:23:55;;;;;;;;;;;;;;;;;;5036576;28;19915;-70
2022/04/03 16:26:20;;;;;;;;;;;;;;;;;;5051973;28;19905;-70
2022/04/03 16:28:46;;;;;;;;;;;;;;;;;;5051792;28;19966;-71
2022/04/03 16:31:11;;;;;;;;;;;;;;;;;;5052457;28;19916;-70
2022/04/03 16:33:36;;;;;;;;;;;;;;;;;;5049419;28;19916;-68
2022/04/03 16:36:02;;;;;;;;;;;;;;;;;;5036302;28;20071;-72